sensor_id;sensor_type;location;lat;lon;timestamp;temperature;humidity
31687;DHT22;18285;51.330;4.946;2023-02-18T00:00:16;28.10;35.90
31687;DHT22;18285;51.330;4.946;2023-02-18T00:24:27;28.30;34.70
31687;DHT22;18285;51.330;4.946;2023-02-18T00:48:39;28.30;33.40
31687;DHT22;18285;51.330;4.946;2023-02-18T01:12:49;28.30;33.00
31687;DHT22;18285;51.330;4.946;2023-02-18T01:37:00;28.10;32.90
31687;DHT22;18285;51.330;4.946;2023-02-18T02:01:11;28.00;33.10
31687;DHT22;18285;51.330;4.946;2023-02-18T02:50:16;27.70;33.40
31687;DHT22;18285;51.330;4.946;2023-02-18T03:14:43;27.40;33.60
31687;DHT22;18285;51.330;4.946;2023-02-18T03:39:00;27.30;33.90
31687;DHT22;18285;51.330;4.946;2023-02-18T04:03:12;27.10;34.20
31687;DHT22;18285;51.330;4.946;2023-02-18T04:27:23;26.80;34.50
31687;DHT22;18285;51.330;4.946;2023-02-18T04:51:34;26.70;34.80
31687;DHT22;18285;51.330;4.946;2023-02-18T05:15:47;26.40;35.20
31687;DHT22;18285;51.330;4.946;2023-02-18T05:39:57;26.20;35.50
31687;DHT22;18285;51.330;4.946;2023-02-18T06:04:08;26.10;35.80
31687;DHT22;18285;51.330;4.946;2023-02-18T06:28:20;25.80;36.00
31687;DHT22;18285;51.330;4.946;2023-02-18T06:52:31;25.60;36.30
31687;DHT22;18285;51.330;4.946;2023-02-18T07:16:43;25.50;36.50
31687;DHT22;18285;51.330;4.946;2023-02-18T07:40:55;25.40;36.20
31687;DHT22;18285;51.330;4.946;2023-02-18T08:05:05;25.20;35.90
31687;DHT22;18285;51.330;4.946;2023-02-18T08:29:16;25.10;36.10
31687;DHT22;18285;51.330;4.946;2023-02-18T08:53:27;25.00;35.90
31687;DHT22;18285;51.330;4.946;2023-02-18T09:17:37;24.80;35.80
31687;DHT22;18285;51.330;4.946;2023-02-18T09:41:53;24.70;35.60
31687;DHT22;18285;51.330;4.946;2023-02-18T10:06:23;24.60;35.90
31687;DHT22;18285;51.330;4.946;2023-02-18T10:30:50;24.60;36.20
31687;DHT22;18285;51.330;4.946;2023-02-18T10:55:07;24.50;36.40
31687;DHT22;18285;51.330;4.946;2023-02-18T11:19:36;24.40;36.70
31687;DHT22;18285;51.330;4.946;2023-02-18T11:43:50;24.30;36.70
31687;DHT22;18285;51.330;4.946;2023-02-18T13:20:45;24.00;38.30
31687;DHT22;18285;51.330;4.946;2023-02-18T14:33:24;24.00;38.20
31687;DHT22;18285;51.330;4.946;2023-02-18T14:57:47;24.00;38.40
31687;DHT22;18285;51.330;4.946;2023-02-18T15:21:58;23.90;38.40
31687;DHT22;18285;51.330;4.946;2023-02-18T15:46:12;23.90;38.50
31687;DHT22;18285;51.330;4.946;2023-02-18T16:10:38;23.80;39.20
31687;DHT22;18285;51.330;4.946;2023-02-18T16:34:51;23.90;39.40
31687;DHT22;18285;51.330;4.946;2023-02-18T16:59:03;23.80;39.60
31687;DHT22;18285;51.330;4.946;2023-02-18T17:58:00;23.70;40.50
31687;DHT22;18285;51.330;4.946;2023-02-18T18:22:10;23.90;42.60
31687;DHT22;18285;51.330;4.946;2023-02-18T18:46:21;24.20;42.40
31687;DHT22;18285;51.330;4.946;2023-02-18T19:10:41;24.90;40.70
31687;DHT22;18285;51.330;4.946;2023-02-18T19:34:52;25.40;39.70
31687;DHT22;18285;51.330;4.946;2023-02-18T19:59:03;25.90;38.50
31687;DHT22;18285;51.330;4.946;2023-02-18T20:23:13;26.40;37.70
31687;DHT22;18285;51.330;4.946;2023-02-18T20:47:24;26.90;37.00
31687;DHT22;18285;51.330;4.946;2023-02-18T21:11:35;27.10;36.30
31687;DHT22;18285;51.330;4.946;2023-02-18T21:35:45;27.10;36.00
31687;DHT22;18285;51.330;4.946;2023-02-18T21:59:58;27.20;35.50
31687;DHT22;18285;51.330;4.946;2023-02-18T22:24:11;27.60;34.70
31687;DHT22;18285;51.330;4.946;2023-02-18T22:48:22;28.10;34.00
31687;DHT22;18285;51.330;4.946;2023-02-18T23:12:33;28.80;33.00
31687;DHT22;18285;51.330;4.946;2023-02-18T23:36:44;29.30;31.80
